Wilmington, DE (19806)

11:40 AM EST on February 11, 2016 (GMT -0500)
The Highlands | | Change Station
CLOSE
Current Station
Personal Weather Station
Location: Wilmington, DE
Elevation: 207 ft
Nearby Weather Stations

Elev 207 ft 39.76 °N, 75.57 °W | Updated 25 seconds ago

Partly Cloudy
Partly Cloudy
25.0 °F
Feels Like 18 °F
N
5.6
Wind Variable Wind from West
Gusts 7.4 mph

Today
High -- | Low -- °F
--% Chance of Precip.
Yesterday
High -- | Low -- °F
Precip. -- in
Pressure 30.07 in
Visibility 10.0 miles
Clouds Few 3500 ft
Windchill 18 °F
Dew Point -2 °F
Humidity 30%
Rainfall 0.00 in
Snow Depth Not available.
7:00 AM 5:33 PM
Waxing Crescent, 13% visible
METAR KILG 111551Z 29015KT 10SM FEW035 M06/M12 A3007 RMK AO2 PK WND 31026/1513 SNB11E47 SLP183 P0000 T10561117
Pressure 30.07 in
Visibility 10.0 miles
Clouds Few 3500 ft
Windchill 18 °F
Dew Point -2 °F
Humidity 30%
Rainfall 0.00 in
Snow Depth Not available.
7:00 AM 5:33 PM
Waxing Crescent, 13% visible
METAR KILG 111551Z 29015KT 10SM FEW035 M06/M12 A3007 RMK AO2 PK WND 31026/1513 SNB11E47 SLP183 P0000 T10561117

10-Day Weather Forecast

Almanac

Astronomy

Feb. 11, 2016 Rise Set
Actual Time
Civil Twilight
Nautical Twilight
Astronomical Twilight
Moon
Length of Visible Light
Length of Day
Tomorrow will be .
, % of the Moon is Illuminated

Today's Extremes

State Highs State Lows

Community

WunderPhotos

Upload Photos

1,892,095 photos uploaded!

WunderBlog® & News

Nearby

Air Quality

  Air Quality AQ Index Pollutant
Not available.

Snow Depth

Station Depth Elevation

Earthquake Activity

City Distance Mag. Time & Date
Minimum magnitude displayed is 2.5.

Coastal Water Temperatures

Place Temperature

Stations

Nearby Weather Stations

Station Location Temp. Windchill Dew Point Humidity Wind Precip. Elev Updated Type
                   

Watches & Warnings

There are currently no watches in effect.